Aviation Digital Data Service (ADDS)

Output produced by METARs form (1548 UTC 04 August 2015)
found at http://aviationweather.gov/adds/metars/
 
KCDW 041453Z 22008KT 10SM CLR 28/17 A2986 RMK AO2 SLP113 T02780172 55005
KMMU 041545Z 23011KT 15SM FEW180 30/18 A2986
KFWN 041453Z AUTO 23008KT 10SM CLR 26/18 A2986 RMK AO2 SLP110 T02560183 55002
KTEB 041451Z 21010KT 10SM CLR 28/18 A2984 RMK AO2 SLP104 T02830178 55005
KTEB 041434Z 0415/0512 22007KT P6SM SCT050 
     FM041800 25015G22KT P6SM SCT050 
     FM050000 29008KT P6SM SCT250 
     FM050400 31004KT P6SM SCT250
       
KEWR 041451Z 25012KT 10SM FEW040 SCT220 28/19 A2986 RMK AO2 SLP111 T02830189 55004
KEWR 041434Z 0415/0518 23008KT P6SM SCT050 
     FM041800 25015G24KT P6SM SCT050 
     FM050200 28008KT P6SM SCT250 
     FM050600 29005KT P6SM SCT250 
     FM051400 28010KT P6SM SCT250
       
KDXR 041453Z 24007KT 10SM CLR 26/18 A2987 RMK AO2 SLP111 T02560183 53000
KHPN 041456Z 27008KT 10SM CLR 27/18 A2986 RMK AO2 SLP105 T02720178 53001
KHPN 041434Z 0415/0512 24006KT P6SM SCT050 
     FM041800 25012G18KT P6SM SCT050 
     FM042300 26008KT P6SM SCT250 
     FM050200 32004KT P6SM SCT250 AMD NOT SKED
       
KABE 041451Z 24010KT 10SM CLR 26/19 A2989 RMK AO2 SLP119 T02610194 53003
KABE 041139Z 0412/0512 VRB03KT P6SM SCT150 
     FM041500 25008G18KT P6SM SCT080 
     FM042100 28012G20KT P6SM SCT040 
     FM050000 30004KT P6SM SKC
       
KAVP 041454Z 22010KT 10SM FEW023 25/18 A2989 RMK AO2 SLP111 T02500178 51004
KAVP 041528Z 0415/0512 24010KT P6SM BKN045 
     FM050000 VRB03KT P6SM SCT120
       
KSWF 041545Z 24010KT 20SM SCT030 27/20 A2986
KSWF 041434Z 0415/0518 24007KT P6SM SCT040 
     FM041700 26014G22KT P6SM SCT050 
     FM042200 28010KT P6SM SCT050 
     FM050200 28004KT P6SM SCT250 
     FM051500 29006KT P6SM SCT250 AMD NOT SKED
       
KMSV 041535Z AUTO 29010KT 10SM FEW026 SCT035 BKN050 24/18 A2990 RMK AO1
KPOU 041453Z 23006KT 10SM CLR 27/19 A2983 RMK AO2 SLP097 T02720189 55005
KPOU 041133Z 0412/0512 VRB03KT P6SM SCT090 BKN250 
     FM041400 25007KT P6SM SCT050 SCT100 
     FM041800 25010KT P6SM BKN050 
     FM042300 29005KT P6SM SCT050 SCT100 
     FM050800 VRB03KT 4SM BR BKN050 BKN100
       
KACY 041454Z 25008KT 10SM CLR 31/22 A2989 RMK AO2 SLP121 T03110222 52001
KACY 041518Z 0415/0512 24008KT P6SM SCT040 
     FM041700 23012G20KT P6SM BKN040 
     TEMPO 0422/0424 3SM -TSRA OVC030CB 
     FM050000 23007KT P6SM SCT030 BKN080 
     FM050600 25004KT 3SM BR SCT003
       
KGON 041456Z AUTO 22008KT 10SM CLR 26/19 A2986 RMK AO2 SLP109 T02610194 51002
KGON 041434Z 0415/0512 23008KT P6SM SCT050 
     FM041700 22010G17KT P6SM SCT050 
     FM041900 22013G20KT P6SM SCT050 
     FM042300 26008KT P6SM SCT250 
     FM050300 25004KT P6SM SCT250